Landa, North Dakota
Current Conditions -  °F | °C
As of 11:58 AM on Sunday 21 Dec 2014 (Local Time) from KMIB Reporting Station
Clear Clear  
Wind Chill: 16°   Ceiling: Unl
Heat Index: 26°   Visibility: 10mi
Dew Point: 26°   Wind: 10mph
Humidity: 100%   Direction: 130°SE
Pressure: 29.46"   Gusts: NA
Location:  48.9505°N, 100.734°W
Report Text: KMIB 211758Z AUTO 13009KT 10SM CLR M03/M03 A2946 RMK AO2 SLP003 T10341034 11034 21117 $
Loading
Personal Weather Stations






























Interactive Weather Map New forecast layout! Learn more

10-Day Weather Forecast

Advertisements
Track Severe Weather on mobile